Tonica, Illinois
Current Conditions -  °F | °C
As of 12:35 PM on Monday 22 Dec 2014 (Local Time) from KVYS Reporting Station
Moderate Rain Moderate Rain  
Wind Chill: 27°   Ceiling: 500
Heat Index: 36°   Visibility: 2.5mi
Dew Point: 35°   Wind: 15mph
Humidity: 95%   Direction: 110°ESE
Pressure: 29.7"   Gusts: 22mph
Location:  41.22°N, 89.07°W
Report Text: KVYS 221835Z AUTO 11013G19KT 2 1/2SM RA OVC005 02/02 A2970 RMK AO2 P0002 T00220015
Loading
Personal Weather Stations






























Interactive Weather Map New forecast layout! Learn more

10-Day Weather Forecast

Advertisements
Track Severe Weather on mobile